BEL3MN EBBR-LEMG
Flight info
| Callsign | BEL3MN |
|---|---|
| Flight time | N/A |
| Altitude | 35000 |
| Route | CIV2X CIV N872 LESDO DCT KOVIN DCT DUCRA UM728 RESMI UN857 DISAK DCT ARKIP DCT ARNAV DCT LMG DCT UVELI DCT OSMOB DCT ARVID T424 PPN N10 CJN L27 BLN BLN2G |
| Aircraft | A21N/M-SDE2E3FGHIRWXY/LB1 |
Departure
| Time | 2026-05-06 10:39 |
|---|---|
| Airport | Brussels Airport (EBBR) |
Arrival
| Time | N/A |
|---|---|
| Airport | Málaga-Costa del Sol Airport (LEMG) |
| Time | Latitude | Longitude | Altitude | Speed | Heading |
|---|---|---|---|---|---|
| 2026-05-06 10:23 | 50.89249 | 4.48359 | 161 ft | 0 kts | 70° |
| 2026-05-06 10:35 | 50.89250 | 4.48367 | 161 ft | 3 kts | 84° |
| 2026-05-06 10:35 | 50.89225 | 4.48444 | 160 ft | 10 kts | 168° |
| 2026-05-06 10:36 | 50.89175 | 4.48376 | 162 ft | 9 kts | 240° |
| 2026-05-06 10:36 | 50.89151 | 4.48287 | 162 ft | 9 kts | 261° |
| 2026-05-06 10:36 | 50.89140 | 4.48178 | 160 ft | 12 kts | 256° |
| 2026-05-06 10:36 | 50.89113 | 4.48049 | 161 ft | 12 kts | 251° |
| 2026-05-06 10:37 | 50.89069 | 4.47920 | 158 ft | 14 kts | 217° |
| 2026-05-06 10:37 | 50.88979 | 4.47913 | 159 ft | 13 kts | 160° |
| 2026-05-06 10:37 | 50.88938 | 4.48013 | 162 ft | 10 kts | 94° |
| 2026-05-06 10:37 | 50.88938 | 4.48033 | 162 ft | 0 kts | 91° |
| 2026-05-06 10:38 | 50.88937 | 4.48101 | 163 ft | 27 kts | 90° |
| 2026-05-06 10:39 | 50.89091 | 4.48828 | 161 ft | 111 kts | 71° |
| 2026-05-06 10:39 | 50.89440 | 4.50345 | 177 ft | 178 kts | 70° |
| 2026-05-06 10:39 | 50.89867 | 4.52356 | 557 ft | 208 kts | 68° |
| 2026-05-06 10:39 | 50.90616 | 4.54370 | 1483 ft | 218 kts | 50° |
| 2026-05-06 10:40 | 50.91344 | 4.56321 | 2677 ft | 211 kts | 73° |
| 2026-05-06 10:40 | 50.91238 | 4.58683 | 3181 ft | 230 kts | 112° |
| 2026-05-06 10:40 | 50.90100 | 4.60615 | 3526 ft | 258 kts | 150° |
| 2026-05-06 10:40 | 50.88304 | 4.61184 | 3919 ft | 278 kts | 187° |
| 2026-05-06 10:41 | 50.86531 | 4.60014 | 4569 ft | 282 kts | 220° |
| 2026-05-06 10:41 | 50.85298 | 4.57621 | 5328 ft | 280 kts | 246° |
| 2026-05-06 10:41 | 50.84509 | 4.54863 | 6056 ft | 281 kts | 248° |
| 2026-05-06 10:41 | 50.83666 | 4.52036 | 6768 ft | 283 kts | 246° |
| 2026-05-06 10:42 | 50.82766 | 4.49293 | 7466 ft | 286 kts | 244° |
| 2026-05-06 10:42 | 50.81811 | 4.46572 | 8159 ft | 288 kts | 243° |
| 2026-05-06 10:42 | 50.80806 | 4.43819 | 8820 ft | 291 kts | 242° |
| 2026-05-06 10:42 | 50.79771 | 4.41050 | 9475 ft | 293 kts | 241° |
| 2026-05-06 10:43 | 50.78737 | 4.38319 | 10105 ft | 296 kts | 241° |
| 2026-05-06 10:43 | 50.77650 | 4.35471 | 10481 ft | 308 kts | 240° |
| 2026-05-06 10:43 | 50.76519 | 4.32520 | 10762 ft | 323 kts | 240° |
| 2026-05-06 10:44 | 50.74094 | 4.26214 | 11325 ft | 351 kts | 239° |
| 2026-05-06 10:44 | 50.72816 | 4.22905 | 11837 ft | 356 kts | 239° |
| 2026-05-06 10:44 | 50.71527 | 4.19575 | 12415 ft | 359 kts | 239° |
| 2026-05-06 10:44 | 50.70229 | 4.16223 | 13005 ft | 361 kts | 239° |
| 2026-05-06 10:45 | 50.68919 | 4.12843 | 13564 ft | 364 kts | 240° |
| 2026-05-06 10:45 | 50.67587 | 4.09411 | 14126 ft | 367 kts | 240° |
| 2026-05-06 10:45 | 50.66260 | 4.05994 | 14673 ft | 369 kts | 240° |
| 2026-05-06 10:45 | 50.64920 | 4.02549 | 15233 ft | 371 kts | 240° |
| 2026-05-06 10:46 | 50.63575 | 3.99092 | 15776 ft | 373 kts | 240° |
| 2026-05-06 10:46 | 50.62228 | 3.95641 | 16301 ft | 375 kts | 239° |
| 2026-05-06 10:46 | 50.60865 | 3.92154 | 16742 ft | 379 kts | 239° |
| 2026-05-06 10:46 | 50.59457 | 3.88555 | 17124 ft | 384 kts | 239° |
| 2026-05-06 10:47 | 50.57878 | 3.85133 | 17570 ft | 389 kts | 228° |
| 2026-05-06 10:47 | 50.55827 | 3.82407 | 18033 ft | 392 kts | 214° |
| 2026-05-06 10:47 | 50.53408 | 3.80444 | 18521 ft | 395 kts | 205° |
| 2026-05-06 10:47 | 50.50894 | 3.78739 | 18990 ft | 397 kts | 204° |
| 2026-05-06 10:48 | 50.48347 | 3.77043 | 19414 ft | 400 kts | 204° |
| 2026-05-06 10:48 | 50.45756 | 3.75310 | 19837 ft | 403 kts | 204° |
| 2026-05-06 10:48 | 50.43188 | 3.73579 | 20240 ft | 406 kts | 204° |
| 2026-05-06 10:48 | 50.40612 | 3.71834 | 20657 ft | 408 kts | 204° |
| 2026-05-06 10:49 | 50.37970 | 3.70042 | 21077 ft | 410 kts | 204° |
| 2026-05-06 10:49 | 50.35352 | 3.68267 | 21475 ft | 413 kts | 204° |
| 2026-05-06 10:49 | 50.32725 | 3.66487 | 21862 ft | 415 kts | 204° |
| 2026-05-06 10:49 | 50.30067 | 3.64688 | 22250 ft | 417 kts | 204° |
| 2026-05-06 10:50 | 50.27425 | 3.62904 | 22617 ft | 419 kts | 203° |
| 2026-05-06 10:50 | 50.24739 | 3.61094 | 22974 ft | 421 kts | 203° |
| 2026-05-06 10:50 | 50.22033 | 3.59272 | 23341 ft | 423 kts | 203° |
| 2026-05-06 10:50 | 50.19353 | 3.57470 | 23699 ft | 425 kts | 203° |
| 2026-05-06 10:51 | 50.16633 | 3.55642 | 24073 ft | 427 kts | 202° |
| 2026-05-06 10:51 | 50.13898 | 3.53805 | 24421 ft | 429 kts | 202° |
| 2026-05-06 10:51 | 50.11151 | 3.51965 | 24755 ft | 431 kts | 202° |
| 2026-05-06 10:51 | 50.08426 | 3.50142 | 25067 ft | 433 kts | 202° |
| 2026-05-06 10:52 | 50.05640 | 3.48282 | 25391 ft | 435 kts | 202° |
| 2026-05-06 10:52 | 50.02860 | 3.46426 | 25702 ft | 437 kts | 202° |
| 2026-05-06 10:52 | 50.00079 | 3.44571 | 25996 ft | 439 kts | 202° |
| 2026-05-06 10:52 | 49.97264 | 3.42697 | 26292 ft | 441 kts | 202° |
| 2026-05-06 10:53 | 49.94420 | 3.40804 | 26588 ft | 443 kts | 202° |
| 2026-05-06 10:53 | 49.91597 | 3.38928 | 26877 ft | 444 kts | 202° |
| 2026-05-06 10:53 | 49.88739 | 3.37033 | 27165 ft | 446 kts | 202° |
| 2026-05-06 10:53 | 49.85904 | 3.35155 | 27448 ft | 447 kts | 202° |
| 2026-05-06 10:54 | 49.83047 | 3.33265 | 27731 ft | 449 kts | 201° |
| 2026-05-06 10:54 | 49.80144 | 3.31347 | 28009 ft | 450 kts | 201° |
| 2026-05-06 10:54 | 49.77309 | 3.29474 | 28266 ft | 451 kts | 202° |
| 2026-05-06 10:54 | 49.74402 | 3.27556 | 28615 ft | 451 kts | 201° |
| 2026-05-06 10:55 | 49.71558 | 3.25682 | 29001 ft | 449 kts | 201° |
| 2026-05-06 10:55 | 49.68679 | 3.23787 | 29380 ft | 447 kts | 201° |
| 2026-05-06 10:55 | 49.65842 | 3.21922 | 29734 ft | 446 kts | 201° |
| 2026-05-06 10:55 | 49.62983 | 3.20046 | 30064 ft | 445 kts | 201° |
| 2026-05-06 10:56 | 49.60163 | 3.18198 | 30370 ft | 444 kts | 201° |
| 2026-05-06 10:56 | 49.57347 | 3.16355 | 30665 ft | 444 kts | 201° |
| 2026-05-06 10:56 | 49.54497 | 3.14493 | 30954 ft | 444 kts | 201° |
| 2026-05-06 10:56 | 49.51686 | 3.12611 | 31217 ft | 444 kts | 203° |
| 2026-05-06 10:57 | 49.48932 | 3.10522 | 31465 ft | 444 kts | 206° |
| 2026-05-06 10:57 | 49.46231 | 3.08176 | 31698 ft | 444 kts | 210° |
| 2026-05-06 10:57 | 49.43621 | 3.05608 | 31927 ft | 444 kts | 212° |
| 2026-05-06 10:57 | 49.41060 | 3.02997 | 32160 ft | 444 kts | 212° |
| 2026-05-06 10:58 | 49.38457 | 3.00349 | 32402 ft | 443 kts | 213° |
| 2026-05-06 10:58 | 49.35915 | 2.97768 | 32627 ft | 443 kts | 213° |
| 2026-05-06 10:58 | 49.33370 | 2.95187 | 32843 ft | 442 kts | 213° |
| 2026-05-06 10:58 | 49.30778 | 2.92564 | 33008 ft | 442 kts | 213° |
| 2026-05-06 10:59 | 49.28227 | 2.89987 | 33160 ft | 443 kts | 213° |
| 2026-05-06 10:59 | 49.25648 | 2.87385 | 33286 ft | 444 kts | 213° |
| 2026-05-06 10:59 | 49.23087 | 2.84805 | 33423 ft | 445 kts | 213° |
| 2026-05-06 10:59 | 49.20497 | 2.82199 | 33537 ft | 446 kts | 213° |
| 2026-05-06 11:00 | 49.17926 | 2.79615 | 33661 ft | 447 kts | 213° |
| 2026-05-06 11:00 | 49.15324 | 2.77004 | 33802 ft | 447 kts | 213° |
| 2026-05-06 11:00 | 49.12741 | 2.74415 | 33916 ft | 448 kts | 213° |
| 2026-05-06 11:01 | 49.07520 | 2.69190 | 34130 ft | 450 kts | 213° |
| 2026-05-06 11:01 | 49.02288 | 2.63970 | 34341 ft | 451 kts | 213° |
| 2026-05-06 11:01 | 48.99652 | 2.61345 | 34467 ft | 452 kts | 213° |
| 2026-05-06 11:02 | 48.97055 | 2.58762 | 34552 ft | 453 kts | 213° |
| 2026-05-06 11:02 | 48.94401 | 2.56124 | 34655 ft | 454 kts | 213° |
| 2026-05-06 11:02 | 48.91743 | 2.53486 | 34777 ft | 454 kts | 213° |
| 2026-05-06 11:03 | 48.86464 | 2.48256 | 34873 ft | 455 kts | 213° |
| 2026-05-06 11:03 | 48.81178 | 2.43036 | 34891 ft | 454 kts | 213° |
| 2026-05-06 11:04 | 48.75894 | 2.37832 | 34878 ft | 455 kts | 213° |
| 2026-05-06 11:04 | 48.70565 | 2.32595 | 34883 ft | 455 kts | 212° |
| 2026-05-06 11:05 | 48.65298 | 2.27433 | 34873 ft | 455 kts | 212° |
| 2026-05-06 11:05 | 48.59807 | 2.22681 | 34881 ft | 455 kts | 206° |
| 2026-05-06 11:06 | 48.54021 | 2.18966 | 34877 ft | 455 kts | 199° |
| 2026-05-06 11:06 | 48.47955 | 2.16305 | 34863 ft | 454 kts | 192° |
| 2026-05-06 11:07 | 48.41787 | 2.14325 | 34874 ft | 454 kts | 191° |
| 2026-05-06 11:07 | 48.35577 | 2.12396 | 34858 ft | 454 kts | 189° |
| 2026-05-06 11:08 | 48.29324 | 2.11330 | 34849 ft | 453 kts | 182° |
| 2026-05-06 11:08 | 48.23063 | 2.11346 | 34872 ft | 453 kts | 176° |
| 2026-05-06 11:09 | 48.16777 | 2.12140 | 34866 ft | 453 kts | 175° |
| 2026-05-06 11:09 | 48.10512 | 2.12282 | 34859 ft | 453 kts | 181° |
| 2026-05-06 11:10 | 48.04228 | 2.11386 | 34880 ft | 453 kts | 186° |
| 2026-05-06 11:10 | 47.97989 | 2.10196 | 34860 ft | 453 kts | 186° |
| 2026-05-06 11:11 | 47.91738 | 2.09010 | 34873 ft | 454 kts | 186° |
| 2026-05-06 11:11 | 47.85486 | 2.07822 | 34874 ft | 454 kts | 187° |
| 2026-05-06 11:12 | 47.79277 | 2.06644 | 34844 ft | 454 kts | 187° |
| 2026-05-06 11:12 | 47.73000 | 2.05455 | 34875 ft | 455 kts | 187° |
| 2026-05-06 11:13 | 47.66726 | 2.04106 | 34857 ft | 456 kts | 191° |
| 2026-05-06 11:13 | 47.60611 | 2.01842 | 34865 ft | 456 kts | 197° |
| 2026-05-06 11:14 | 47.54641 | 1.98595 | 34855 ft | 455 kts | 201° |
| 2026-05-06 11:14 | 47.48799 | 1.95203 | 34875 ft | 454 kts | 201° |
| 2026-05-06 11:15 | 47.42889 | 1.91785 | 34871 ft | 455 kts | 201° |
| 2026-05-06 11:15 | 47.37039 | 1.88412 | 34877 ft | 455 kts | 201° |
| 2026-05-06 11:16 | 47.31135 | 1.85019 | 34857 ft | 455 kts | 201° |
| 2026-05-06 11:16 | 47.25250 | 1.81645 | 34866 ft | 455 kts | 202° |
| 2026-05-06 11:17 | 47.19371 | 1.78284 | 34866 ft | 455 kts | 201° |
| 2026-05-06 11:17 | 47.13488 | 1.74961 | 34884 ft | 454 kts | 201° |
| 2026-05-06 11:18 | 47.07565 | 1.71629 | 34867 ft | 453 kts | 201° |
| 2026-05-06 11:18 | 47.01682 | 1.68325 | 34885 ft | 453 kts | 201° |
| 2026-05-06 11:19 | 46.95811 | 1.65036 | 34889 ft | 454 kts | 201° |
| 2026-05-06 11:19 | 46.89904 | 1.61736 | 34890 ft | 455 kts | 201° |
| 2026-05-06 11:20 | 46.84034 | 1.58463 | 34904 ft | 455 kts | 201° |
| 2026-05-06 11:20 | 46.78119 | 1.55173 | 34887 ft | 455 kts | 201° |
| 2026-05-06 11:21 | 46.72218 | 1.51898 | 34879 ft | 454 kts | 202° |
| 2026-05-06 11:21 | 46.66330 | 1.48639 | 34874 ft | 454 kts | 202° |
| 2026-05-06 11:22 | 46.60419 | 1.45373 | 34875 ft | 455 kts | 202° |
| 2026-05-06 11:22 | 46.54513 | 1.42118 | 34871 ft | 455 kts | 202° |
| 2026-05-06 11:23 | 46.48629 | 1.38882 | 34884 ft | 455 kts | 202° |
| 2026-05-06 11:23 | 46.42739 | 1.35651 | 34867 ft | 454 kts | 202° |
| 2026-05-06 11:24 | 46.36823 | 1.32416 | 34876 ft | 454 kts | 201° |
| 2026-05-06 11:24 | 46.30890 | 1.29176 | 34876 ft | 454 kts | 201° |
| 2026-05-06 11:25 | 46.25024 | 1.25981 | 34874 ft | 454 kts | 201° |
| 2026-05-06 11:25 | 46.19114 | 1.22768 | 34866 ft | 454 kts | 201° |
| 2026-05-06 11:26 | 46.13217 | 1.19570 | 34875 ft | 453 kts | 201° |
| 2026-05-06 11:26 | 46.07337 | 1.16390 | 34865 ft | 453 kts | 201° |
| 2026-05-06 11:27 | 46.01452 | 1.13215 | 34868 ft | 453 kts | 201° |
| 2026-05-06 11:27 | 45.95542 | 1.10035 | 34878 ft | 454 kts | 201° |
| 2026-05-06 11:28 | 45.89647 | 1.06856 | 34880 ft | 453 kts | 202° |
| 2026-05-06 11:28 | 45.83943 | 1.03106 | 34881 ft | 452 kts | 209° |
| 2026-05-06 11:29 | 45.78585 | 0.98480 | 34883 ft | 450 kts | 216° |
| 2026-05-06 11:29 | 45.73642 | 0.93058 | 34884 ft | 449 kts | 221° |
| 2026-05-06 11:30 | 45.68860 | 0.87324 | 34875 ft | 449 kts | 221° |
| 2026-05-06 11:30 | 45.64081 | 0.81619 | 34882 ft | 449 kts | 221° |
| 2026-05-06 11:31 | 45.59266 | 0.75885 | 34877 ft | 449 kts | 221° |
| 2026-05-06 11:31 | 45.54473 | 0.70192 | 34892 ft | 449 kts | 221° |
| 2026-05-06 11:32 | 45.49683 | 0.64514 | 34889 ft | 449 kts | 221° |
| 2026-05-06 11:32 | 45.44903 | 0.58863 | 34889 ft | 448 kts | 221° |
| 2026-05-06 11:33 | 45.40112 | 0.53211 | 34889 ft | 448 kts | 221° |
| 2026-05-06 11:33 | 45.35297 | 0.47543 | 34889 ft | 447 kts | 221° |
| 2026-05-06 11:34 | 45.30513 | 0.41925 | 34888 ft | 447 kts | 221° |
| 2026-05-06 11:34 | 45.25721 | 0.36310 | 34888 ft | 447 kts | 221° |
| 2026-05-06 11:35 | 45.20948 | 0.30730 | 34887 ft | 448 kts | 221° |
| 2026-05-06 11:35 | 45.16150 | 0.25135 | 34881 ft | 447 kts | 221° |
| 2026-05-06 11:36 | 45.11359 | 0.19559 | 34883 ft | 447 kts | 221° |
| 2026-05-06 11:36 | 45.06567 | 0.13998 | 34883 ft | 446 kts | 221° |
| 2026-05-06 11:37 | 45.01759 | 0.08430 | 34886 ft | 445 kts | 221° |
| 2026-05-06 11:37 | 44.97138 | 0.03088 | 34878 ft | 445 kts | 221° |